createdAt,value
2022-08-17T00:00:42.716Z,6.01
2022-08-17T00:03:11.229Z,6.33
2022-08-17T00:05:40.114Z,6.37
2022-08-17T00:08:06.651Z,6.20
2022-08-17T00:10:35.372Z,6.07
2022-08-17T00:13:02.060Z,6.85
2022-08-17T00:15:28.654Z,6.63
2022-08-17T00:17:55.182Z,6.54
2022-08-17T00:20:23.451Z,6.87
2022-08-17T00:22:57.180Z,6.91
2022-08-17T00:25:23.751Z,6.75
2022-08-17T00:27:50.326Z,6.69
2022-08-17T00:30:18.058Z,7.08
2022-08-17T00:33:14.541Z,6.70
2022-08-17T00:35:32.110Z,6.53
2022-08-17T00:37:59.345Z,6.41
2022-08-17T00:40:25.974Z,6.75
2022-08-17T00:42:52.517Z,6.68
2022-08-17T00:45:19.012Z,6.92
2022-08-17T00:47:46.204Z,6.83
2022-08-17T00:50:12.712Z,6.86
2022-08-17T00:52:41.359Z,6.75
2022-08-17T00:55:08.105Z,6.92
2022-08-17T00:57:35.200Z,6.79
2022-08-17T01:00:03.351Z,6.59
2022-08-17T01:02:30.522Z,6.70
2022-08-17T01:05:00.994Z,6.53
2022-08-17T01:07:27.796Z,6.68
2022-08-17T01:09:54.311Z,6.79
2022-08-17T01:12:20.818Z,6.86
2022-08-17T01:14:47.372Z,7.21
2022-08-17T01:17:14.141Z,6.82
2022-08-17T01:19:40.656Z,6.79
2022-08-17T01:22:07.081Z,6.84
2022-08-17T01:24:33.935Z,6.65
2022-08-17T01:27:00.800Z,7.30
2022-08-17T01:29:27.681Z,7.61
2022-08-17T01:31:54.243Z,6.99
2022-08-17T01:34:20.954Z,7.38
2022-08-17T01:36:47.614Z,7.73
2022-08-17T01:39:14.655Z,7.34
2022-08-17T01:41:41.485Z,7.28
2022-08-17T01:44:07.972Z,7.71
2022-08-17T01:46:34.802Z,7.06
2022-08-17T01:49:01.457Z,7.70
2022-08-17T01:51:28.808Z,8.06
2022-08-17T01:53:55.367Z,7.37
2022-08-17T01:56:22.093Z,7.65
2022-08-17T01:58:48.771Z,7.35
2022-08-17T02:01:15.328Z,7.18
2022-08-17T02:03:42.133Z,7.12
2022-08-17T02:06:27.839Z,7.20
2022-08-17T02:09:01.794Z,7.19
2022-08-17T02:11:28.664Z,6.99
2022-08-17T02:14:02.362Z,6.88
2022-08-17T02:16:37.853Z,6.79
2022-08-17T02:19:04.734Z,6.96
2022-08-17T02:21:31.842Z,7.04
2022-08-17T02:23:59.025Z,7.01
2022-08-17T02:26:26.440Z,7.14
2022-08-17T02:28:53.295Z,7.03
2022-08-17T02:31:20.126Z,7.20
2022-08-17T02:33:46.694Z,7.03
2022-08-17T02:36:27.601Z,7.27
2022-08-17T02:38:54.264Z,6.94
2022-08-17T02:41:20.844Z,7.49
2022-08-17T02:43:47.408Z,7.74
2022-08-17T02:46:13.911Z,7.08
2022-08-17T02:48:40.826Z,7.59
2022-08-17T02:51:07.626Z,7.46
2022-08-17T02:53:35.761Z,7.40
2022-08-17T02:56:02.869Z,7.20
2022-08-17T02:58:35.442Z,6.87
2022-08-17T03:01:03.481Z,7.51
2022-08-17T03:03:30.001Z,7.63
2022-08-17T03:05:56.894Z,7.88
2022-08-17T03:08:24.878Z,7.59
2022-08-17T03:10:52.306Z,7.59
2022-08-17T03:13:19.109Z,7.51
2022-08-17T03:15:45.728Z,7.50
2022-08-17T03:18:24.243Z,7.04
2022-08-17T03:20:52.031Z,7.73
2022-08-17T03:23:18.834Z,7.07
2022-08-17T03:25:53.024Z,6.98
2022-08-17T03:28:20.242Z,7.30
2022-08-17T03:30:46.809Z,6.96
2022-08-17T03:33:14.156Z,7.26
2022-08-17T03:35:40.969Z,7.20
2022-08-17T03:38:07.552Z,7.17
2022-08-17T03:40:57.059Z,7.26
2022-08-17T03:43:21.189Z,7.28
2022-08-17T03:45:47.910Z,7.43
2022-08-17T03:48:17.225Z,7.05
2022-08-17T03:50:43.919Z,7.17
2022-08-17T03:53:10.426Z,7.16
2022-08-17T03:55:36.986Z,7.19
2022-08-17T03:58:03.509Z,7.10
2022-08-17T04:00:30.291Z,7.23
2022-08-17T04:02:56.830Z,7.09
2022-08-17T04:05:23.393Z,7.16
2022-08-17T04:07:50.343Z,7.16
2022-08-17T04:10:17.218Z,7.10
2022-08-17T04:12:47.330Z,7.68
2022-08-17T04:15:13.915Z,7.47
2022-08-17T04:17:40.426Z,7.34
2022-08-17T04:20:07.279Z,7.20
2022-08-17T04:22:34.482Z,7.29
2022-08-17T04:25:02.437Z,7.28
2022-08-17T04:27:29.838Z,7.43
2022-08-17T04:29:56.440Z,7.33
2022-08-17T04:32:58.586Z,7.60
2022-08-17T04:35:09.618Z,7.59
2022-08-17T04:37:36.466Z,7.21
2022-08-17T04:40:04.874Z,7.22
2022-08-17T04:42:31.771Z,7.43
2022-08-17T04:44:58.512Z,7.67
2022-08-17T04:47:27.525Z,7.27
2022-08-17T04:49:54.328Z,7.40
2022-08-17T04:52:32.289Z,7.76
2022-08-17T04:55:08.113Z,7.51
2022-08-17T04:57:39.317Z,7.21
2022-08-17T05:00:08.430Z,7.71
2022-08-17T05:02:35.356Z,7.95
2022-08-17T05:05:16.164Z,7.71
2022-08-17T05:07:43.121Z,7.62
2022-08-17T05:10:09.645Z,7.23
2022-08-17T05:12:36.309Z,7.91
2022-08-17T05:15:05.264Z,7.23
2022-08-17T05:17:31.823Z,7.61
2022-08-17T05:19:58.692Z,7.86
2022-08-17T05:22:25.272Z,8.17
2022-08-17T05:24:53.989Z,7.75
2022-08-17T05:27:22.223Z,7.42
2022-08-17T05:29:50.335Z,7.33
2022-08-17T05:32:39.220Z,7.58
2022-08-17T05:35:03.432Z,7.90
2022-08-17T05:37:29.982Z,8.01
2022-08-17T05:39:56.544Z,8.14
2022-08-17T05:42:23.097Z,7.78
2022-08-17T05:44:49.629Z,8.02
2022-08-17T05:47:16.934Z,7.77
2022-08-17T05:49:44.381Z,8.18
2022-08-17T05:52:19.783Z,7.47
2022-08-17T05:54:47.525Z,7.93
2022-08-17T05:57:14.108Z,7.71
2022-08-17T05:59:40.975Z,7.77
2022-08-17T06:02:10.124Z,7.53
2022-08-17T06:04:36.988Z,7.79
2022-08-17T06:07:03.554Z,7.84
2022-08-17T06:09:33.805Z,7.69
2022-08-17T06:12:00.736Z,8.14
2022-08-17T06:14:28.172Z,7.38
2022-08-17T06:16:54.820Z,7.65
2022-08-17T06:19:21.896Z,7.44
2022-08-17T06:21:48.399Z,7.78
2022-08-17T06:24:15.003Z,7.39
2022-08-17T06:26:43.433Z,7.10
2022-08-17T06:29:10.033Z,7.06
2022-08-17T06:31:45.763Z,6.79
2022-08-17T06:34:12.532Z,6.85
2022-08-17T06:36:39.334Z,6.72
2022-08-17T06:39:05.904Z,6.88
2022-08-17T06:41:32.519Z,6.34
2022-08-17T06:43:59.025Z,6.59
2022-08-17T06:46:26.087Z,6.24
2022-08-17T06:48:52.604Z,6.34
2022-08-17T06:51:19.341Z,6.38
2022-08-17T06:53:46.066Z,6.09
2022-08-17T06:56:12.671Z,6.05
2022-08-17T06:58:40.216Z,6.38
2022-08-17T07:01:07.234Z,6.84
2022-08-17T07:03:34.520Z,6.57
2022-08-17T07:06:02.515Z,6.64
2022-08-17T07:08:32.062Z,6.17
2022-08-17T07:11:00.636Z,6.48
2022-08-17T07:13:27.124Z,7.00
2022-08-17T07:15:56.959Z,7.30
2022-08-17T07:18:23.778Z,7.00
2022-08-17T07:20:51.942Z,6.70
2022-08-17T07:23:18.622Z,6.98
2022-08-17T07:25:45.435Z,6.76
2022-08-17T07:28:12.296Z,7.07
2022-08-17T07:30:45.677Z,7.16
2022-08-17T07:33:16.604Z,7.19
2022-08-17T07:35:43.806Z,7.73
2022-08-17T07:38:25.941Z,7.82
2022-08-17T07:40:53.558Z,7.88
2022-08-17T07:43:22.365Z,8.18
2022-08-17T07:45:50.241Z,8.31
2022-08-17T07:48:17.133Z,7.69
2022-08-17T07:50:49.700Z,7.85
2022-08-17T07:53:17.667Z,7.89
2022-08-17T07:55:44.447Z,8.41
2022-08-17T07:58:13.394Z,9.20
2022-08-17T08:00:42.314Z,8.02
2022-08-17T08:03:11.255Z,7.77
2022-08-17T08:05:50.124Z,7.47
2022-08-17T08:08:17.782Z,7.41
2022-08-17T08:10:45.599Z,7.54
2022-08-17T08:13:14.430Z,7.80
2022-08-17T08:15:44.990Z,7.58
2022-08-17T08:18:15.933Z,8.41
2022-08-17T08:21:02.542Z,7.89
2022-08-17T08:23:29.143Z,8.08
2022-08-17T08:25:55.616Z,8.02
2022-08-17T08:28:23.068Z,7.68
2022-08-17T08:30:50.439Z,7.92
2022-08-17T08:33:17.107Z,7.98
2022-08-17T08:35:43.858Z,8.31
2022-08-17T08:38:10.446Z,8.53
2022-08-17T08:40:37.263Z,9.17
2022-08-17T08:43:03.789Z,9.40
2022-08-17T08:45:31.122Z,9.25
2022-08-17T08:47:57.674Z,8.80
2022-08-17T08:50:37.981Z,8.98
2022-08-17T08:53:05.110Z,8.79
2022-08-17T08:55:32.722Z,8.11
2022-08-17T08:57:59.255Z,8.43
2022-08-17T09:00:26.081Z,8.59
2022-08-17T09:02:52.831Z,8.64
2022-08-17T09:05:19.646Z,9.22
2022-08-17T09:07:46.427Z,8.15
2022-08-17T09:10:13.017Z,8.64
2022-08-17T09:12:42.015Z,8.85
2022-08-17T09:15:12.873Z,8.47
2022-08-17T09:17:39.730Z,8.22
2022-08-17T09:20:06.571Z,8.54
2022-08-17T09:22:35.286Z,8.66
2022-08-17T09:25:04.688Z,7.87
2022-08-17T09:27:31.445Z,7.86
2022-08-17T09:29:58.265Z,7.80
2022-08-17T09:32:24.795Z,7.30
2022-08-17T09:34:51.652Z,7.05
2022-08-17T09:37:21.369Z,7.25
2022-08-17T09:39:48.036Z,7.68
2022-08-17T09:42:14.696Z,8.66
2022-08-17T09:44:41.464Z,9.56
2022-08-17T09:47:08.029Z,9.17
2022-08-17T09:49:34.625Z,8.98
2022-08-17T09:52:01.271Z,9.55
2022-08-17T09:54:44.544Z,8.85
2022-08-17T09:57:29.866Z,8.46
2022-08-17T09:59:57.095Z,8.68
2022-08-17T10:02:24.464Z,8.26
2022-08-17T10:04:51.469Z,7.21
2022-08-17T10:07:18.268Z,7.16
2022-08-17T10:09:45.156Z,7.58
2022-08-17T10:12:12.200Z,6.83
2022-08-17T10:14:44.711Z,7.00
2022-08-17T10:17:20.319Z,7.12
2022-08-17T10:19:48.135Z,7.01
2022-08-17T10:22:34.721Z,7.12
2022-08-17T10:25:21.661Z,6.59
2022-08-17T10:27:48.439Z,7.44
2022-08-17T10:30:23.546Z,7.09
2022-08-17T10:32:50.294Z,7.04
2022-08-17T10:35:16.779Z,7.51
2022-08-17T10:37:43.929Z,7.34
2022-08-17T10:40:10.991Z,7.41
2022-08-17T10:42:37.538Z,7.35
2022-08-17T10:45:11.346Z,7.29
2022-08-17T10:47:54.934Z,7.28
2022-08-17T10:50:22.500Z,7.69
2022-08-17T10:52:50.246Z,7.42
2022-08-17T10:55:17.168Z,7.24
2022-08-17T10:57:43.972Z,7.51
2022-08-17T11:00:10.830Z,7.42
2022-08-17T11:02:39.524Z,7.63
2022-08-17T11:05:13.526Z,8.12
2022-08-17T11:07:40.227Z,8.33
2022-08-17T11:10:06.970Z,8.16
2022-08-17T11:12:33.498Z,8.10
2022-08-17T11:15:00.040Z,7.96
2022-08-17T11:17:29.622Z,8.10
2022-08-17T11:19:56.192Z,8.20
2022-08-17T11:22:23.035Z,8.77
2022-08-17T11:24:49.779Z,8.16
2022-08-17T11:27:20.040Z,8.56
2022-08-17T11:29:51.998Z,8.18
2022-08-17T11:32:19.576Z,8.34
2022-08-17T11:34:48.848Z,8.25
2022-08-17T11:37:15.694Z,10.50
2022-08-17T11:39:42.539Z,8.60
2022-08-17T11:42:09.160Z,8.86
2022-08-17T11:44:35.725Z,8.12
2022-08-17T11:47:02.356Z,8.53
2022-08-17T11:49:28.868Z,8.98
2022-08-17T11:51:55.599Z,8.30
2022-08-17T11:54:32.758Z,9.07
2022-08-17T11:57:00.537Z,8.64
2022-08-17T11:59:27.813Z,8.68
2022-08-17T12:01:54.311Z,8.39
2022-08-17T12:04:20.903Z,8.27
2022-08-17T12:06:47.516Z,8.37
2022-08-17T12:09:14.383Z,8.54
2022-08-17T12:11:58.789Z,8.03
2022-08-17T12:14:45.417Z,8.10
2022-08-17T12:17:22.452Z,8.30
2022-08-17T12:20:01.384Z,8.22
2022-08-17T12:22:31.332Z,8.17
2022-08-17T12:24:58.089Z,7.81
2022-08-17T12:28:04.189Z,8.14
2022-08-17T12:30:14.334Z,8.46
2022-08-17T12:32:40.954Z,8.43
2022-08-17T12:35:07.470Z,8.14
2022-08-17T12:37:35.304Z,8.47
2022-08-17T12:40:01.889Z,7.89
2022-08-17T12:42:28.656Z,7.92
2022-08-17T12:44:55.421Z,8.05
2022-08-17T12:47:23.125Z,8.43
2022-08-17T12:49:50.793Z,8.21
2022-08-17T12:52:17.349Z,7.64
2022-08-17T12:54:44.220Z,7.71
2022-08-17T12:57:10.834Z,7.99
2022-08-17T12:59:37.684Z,7.62
2022-08-17T13:02:04.773Z,8.16
2022-08-17T13:04:31.710Z,7.84
2022-08-17T13:07:00.274Z,7.31
2022-08-17T13:09:33.578Z,7.30
2022-08-17T13:12:07.686Z,7.86
2022-08-17T13:14:34.741Z,7.93
2022-08-17T13:17:01.190Z,7.70
2022-08-17T13:19:40.296Z,7.07
2022-08-17T13:22:08.640Z,7.41
2022-08-17T13:24:38.217Z,7.40
2022-08-17T13:27:12.688Z,7.09
2022-08-17T13:29:39.255Z,7.25
2022-08-17T13:32:13.462Z,7.90
2022-08-17T13:35:12.921Z,7.08
2022-08-17T13:37:29.137Z,7.20
2022-08-17T13:39:55.973Z,7.09
2022-08-17T13:42:23.589Z,7.18
2022-08-17T13:44:51.143Z,6.81
2022-08-17T13:47:17.773Z,7.29
2022-08-17T13:49:48.925Z,7.86
2022-08-17T13:52:16.220Z,7.55
2022-08-17T13:54:47.193Z,7.26
2022-08-17T13:57:14.048Z,7.28
2022-08-17T13:59:53.857Z,7.12
2022-08-17T14:02:22.072Z,6.88
2022-08-17T14:04:48.885Z,7.63
2022-08-17T14:07:17.690Z,7.14
2022-08-17T14:09:44.193Z,7.09
2022-08-17T14:12:11.044Z,6.96
2022-08-17T14:14:38.703Z,7.01
2022-08-17T14:17:08.004Z,7.30
2022-08-17T14:19:35.045Z,7.24
2022-08-17T14:22:04.009Z,7.43
2022-08-17T14:24:30.617Z,7.32
2022-08-17T14:26:59.512Z,7.77
2022-08-17T14:29:26.330Z,7.79
2022-08-17T14:31:54.292Z,7.12
2022-08-17T14:34:23.436Z,7.10
2022-08-17T14:36:50.028Z,7.37
2022-08-17T14:39:18.378Z,7.40
2022-08-17T14:41:47.899Z,7.47
2022-08-17T14:44:16.823Z,7.32
2022-08-17T14:46:43.459Z,7.40
2022-08-17T14:49:10.093Z,6.87
2022-08-17T14:51:37.303Z,7.34
2022-08-17T14:54:25.596Z,6.93
2022-08-17T14:57:32.937Z,7.05
2022-08-17T14:59:46.830Z,7.16
2022-08-17T15:02:13.343Z,7.17
2022-08-17T15:04:45.411Z,7.09
2022-08-17T15:07:19.419Z,6.60
2022-08-17T15:09:49.070Z,6.81
2022-08-17T15:12:16.104Z,6.80
2022-08-17T15:14:44.903Z,6.74
2022-08-17T15:17:11.796Z,6.72
2022-08-17T15:19:38.736Z,6.64
2022-08-17T15:22:05.473Z,6.92
2022-08-17T15:24:34.164Z,7.08
2022-08-17T15:27:01.160Z,6.45
2022-08-17T15:29:28.762Z,6.94
2022-08-17T15:32:00.474Z,7.35
2022-08-17T15:34:29.014Z,6.86
2022-08-17T15:36:55.759Z,6.57
2022-08-17T15:39:24.391Z,6.51
2022-08-17T15:41:57.944Z,6.72
2022-08-17T15:44:34.876Z,6.15
2022-08-17T15:47:01.691Z,6.12
2022-08-17T15:49:28.726Z,6.31
2022-08-17T15:51:56.300Z,6.19
2022-08-17T15:54:23.467Z,6.32
2022-08-17T15:56:50.116Z,6.37
2022-08-17T15:59:18.020Z,6.69
2022-08-17T16:03:14.277Z,6.72
2022-08-17T16:04:32.178Z,6.56
2022-08-17T16:06:59.173Z,6.72
2022-08-17T16:09:28.885Z,6.65
2022-08-17T16:11:56.296Z,6.89
2022-08-17T16:14:24.073Z,6.70
2022-08-17T16:16:51.170Z,7.05
2022-08-17T16:19:18.319Z,7.35
2022-08-17T16:21:46.155Z,7.15
2022-08-17T16:24:14.811Z,7.59
2022-08-17T16:26:41.869Z,7.20
2022-08-17T16:29:08.522Z,7.49
2022-08-17T16:31:35.443Z,7.88
2022-08-17T16:34:17.208Z,8.15
2022-08-17T16:36:54.819Z,8.79
2022-08-17T16:39:23.134Z,8.99
2022-08-17T16:41:51.767Z,8.40
2022-08-17T16:44:20.505Z,8.40
2022-08-17T16:46:47.795Z,7.39
2022-08-17T16:49:36.238Z,6.46
2022-08-17T16:52:01.393Z,6.27
2022-08-17T16:54:27.904Z,6.19
2022-08-17T16:56:54.718Z,6.15
2022-08-17T16:59:31.337Z,6.87
2022-08-17T17:02:08.370Z,6.76
2022-08-17T17:04:35.433Z,6.83
2022-08-17T17:07:02.028Z,6.74
2022-08-17T17:09:28.556Z,6.56
2022-08-17T17:11:55.131Z,6.68
2022-08-17T17:14:22.700Z,6.94
2022-08-17T17:16:49.283Z,6.80
2022-08-17T17:19:15.759Z,7.05
2022-08-17T17:21:46.085Z,6.81
2022-08-17T17:24:12.682Z,6.82
2022-08-17T17:26:40.011Z,6.76
2022-08-17T17:29:06.811Z,6.50
2022-08-17T17:31:34.637Z,6.28
2022-08-17T17:34:01.406Z,6.55
2022-08-17T17:36:37.705Z,5.96
2022-08-17T17:39:04.155Z,5.81
2022-08-17T17:41:30.661Z,6.21
2022-08-17T17:43:57.205Z,6.45
2022-08-17T17:46:29.513Z,6.64
2022-08-17T17:48:56.305Z,6.29
2022-08-17T17:51:55.037Z,6.12
2022-08-17T17:54:10.146Z,6.34
2022-08-17T17:56:43.271Z,5.63
2022-08-17T17:59:12.783Z,6.25
2022-08-17T18:01:39.912Z,6.10
2022-08-17T18:04:17.066Z,5.79
2022-08-17T18:06:47.701Z,5.73
2022-08-17T18:09:18.037Z,6.34
2022-08-17T18:11:46.423Z,5.88
2022-08-17T18:14:18.362Z,6.23
2022-08-17T18:16:44.985Z,6.29
2022-08-17T18:19:11.567Z,5.94
2022-08-17T18:21:38.396Z,6.26
2022-08-17T18:24:04.954Z,6.30
2022-08-17T18:26:32.119Z,6.24
2022-08-17T18:28:58.860Z,6.31
2022-08-17T18:31:25.883Z,6.45
2022-08-17T18:33:53.153Z,6.36
2022-08-17T18:36:22.195Z,6.60
2022-08-17T18:38:49.261Z,6.80
2022-08-17T18:41:16.084Z,6.94
2022-08-17T18:43:52.954Z,6.74
2022-08-17T18:46:29.014Z,7.09
2022-08-17T18:48:56.118Z,6.74
2022-08-17T18:51:39.827Z,6.66
2022-08-17T18:54:09.137Z,7.67
2022-08-17T18:56:36.709Z,6.94
2022-08-17T18:59:03.281Z,6.73
2022-08-17T19:01:41.930Z,6.15
2022-08-17T19:04:16.557Z,6.16
2022-08-17T19:06:50.556Z,6.41
2022-08-17T19:09:17.409Z,5.51
2022-08-17T19:11:44.267Z,5.49
2022-08-17T19:14:11.148Z,5.52
2022-08-17T19:16:37.607Z,5.27
2022-08-17T19:19:04.286Z,5.46
2022-08-17T19:21:31.126Z,5.32
2022-08-17T19:23:57.910Z,4.79
2022-08-17T19:26:53.608Z,5.04
2022-08-17T19:29:12.058Z,4.53
2022-08-17T19:31:38.649Z,4.62
2022-08-17T19:34:05.494Z,4.49
2022-08-17T19:36:32.321Z,4.74
2022-08-17T19:38:58.841Z,4.37
2022-08-17T19:41:25.885Z,4.53
2022-08-17T19:43:53.009Z,4.46
2022-08-17T19:46:19.576Z,4.49
2022-08-17T19:48:48.371Z,4.65
2022-08-17T19:51:15.117Z,4.84
2022-08-17T19:54:03.971Z,4.54
2022-08-17T19:56:28.400Z,4.95
2022-08-17T19:58:54.941Z,5.31
2022-08-17T20:01:22.431Z,4.57
2022-08-17T20:03:49.143Z,4.88
2022-08-17T20:06:15.645Z,4.59
2022-08-17T20:08:42.370Z,4.93
2022-08-17T20:11:08.930Z,4.92
2022-08-17T20:13:35.690Z,4.49
2022-08-17T20:16:10.069Z,5.06
2022-08-17T20:18:36.960Z,4.79
2022-08-17T20:21:03.783Z,4.97
2022-08-17T20:23:30.337Z,5.15
2022-08-17T20:25:58.978Z,5.17
2022-08-17T20:28:25.925Z,4.89
2022-08-17T20:30:52.500Z,4.83
2022-08-17T20:33:19.024Z,5.10
2022-08-17T20:35:45.988Z,4.94
2022-08-17T20:38:13.235Z,4.97
2022-08-17T20:40:40.536Z,4.82
2022-08-17T20:43:07.355Z,4.89
2022-08-17T20:45:33.855Z,4.95
2022-08-17T20:48:33.299Z,4.93
2022-08-17T20:50:47.847Z,4.78
2022-08-17T20:53:16.897Z,4.98
2022-08-17T20:55:52.233Z,4.85
2022-08-17T20:58:19.437Z,4.76
2022-08-17T21:00:46.194Z,4.60
2022-08-17T21:03:13.143Z,5.01
2022-08-17T21:05:40.433Z,4.66
2022-08-17T21:08:07.268Z,4.87
2022-08-17T21:10:34.247Z,4.51
2022-08-17T21:13:00.880Z,4.66
2022-08-17T21:15:29.369Z,4.61
2022-08-17T21:17:56.378Z,4.68
2022-08-17T21:20:23.064Z,4.37
2022-08-17T21:22:49.878Z,4.60
2022-08-17T21:25:17.168Z,4.75
2022-08-17T21:27:43.975Z,4.65
2022-08-17T21:30:13.536Z,4.58
2022-08-17T21:32:42.109Z,4.64
2022-08-17T21:35:08.757Z,4.66
2022-08-17T21:37:35.618Z,4.92
2022-08-17T21:40:02.281Z,4.82
2022-08-17T21:42:29.208Z,4.81
2022-08-17T21:44:56.463Z,4.77
2022-08-17T21:47:23.010Z,4.79
2022-08-17T21:49:50.285Z,5.12
2022-08-17T21:52:16.817Z,5.04
2022-08-17T21:54:46.300Z,4.69
2022-08-17T21:57:12.772Z,4.89
2022-08-17T21:59:39.834Z,4.87
2022-08-17T22:02:08.838Z,4.75
2022-08-17T22:04:35.558Z,4.36
2022-08-17T22:07:02.414Z,4.42
2022-08-17T22:09:29.741Z,4.39
2022-08-17T22:11:58.445Z,4.00
2022-08-17T22:14:25.236Z,4.76
2022-08-17T22:16:52.037Z,4.61
2022-08-17T22:19:18.718Z,4.48
2022-08-17T22:21:45.224Z,4.94
2022-08-17T22:24:12.019Z,4.98
2022-08-17T22:26:38.523Z,5.06
2022-08-17T22:29:06.232Z,4.80
2022-08-17T22:31:35.263Z,4.93
2022-08-17T22:34:01.779Z,5.25
2022-08-17T22:36:29.073Z,5.17
2022-08-17T22:38:56.490Z,4.95
2022-08-17T22:41:23.303Z,4.82
2022-08-17T22:43:50.069Z,5.18
2022-08-17T22:46:18.542Z,5.11
2022-08-17T22:48:45.210Z,4.89
2022-08-17T22:51:12.540Z,5.31
2022-08-17T22:53:39.700Z,5.42
2022-08-17T22:56:06.244Z,5.35
2022-08-17T22:58:35.630Z,5.81
2022-08-17T23:01:02.637Z,5.81
2022-08-17T23:03:29.154Z,5.62
2022-08-17T23:05:55.702Z,5.84
2022-08-17T23:08:24.819Z,5.86
2022-08-17T23:10:51.491Z,5.78
2022-08-17T23:13:18.305Z,5.62
2022-08-17T23:15:47.121Z,5.64
2022-08-17T23:18:13.885Z,5.67
2022-08-17T23:20:42.691Z,5.30
2022-08-17T23:23:09.716Z,4.98
2022-08-17T23:25:36.571Z,5.12
2022-08-17T23:28:04.132Z,5.27
2022-08-17T23:30:30.992Z,5.17
2022-08-17T23:32:57.967Z,4.93
2022-08-17T23:35:40.278Z,4.70
2022-08-17T23:38:15.090Z,4.91
2022-08-17T23:40:41.921Z,4.99
2022-08-17T23:43:17.612Z,4.88
2022-08-17T23:45:52.081Z,4.28
2022-08-17T23:48:35.268Z,4.70
2022-08-17T23:51:04.109Z,4.10
2022-08-17T23:53:31.476Z,4.28
2022-08-17T23:56:06.947Z,3.88
2022-08-17T23:58:36.868Z,4.17
